sensor_id;sensor_type;location;lat;lon;timestamp;P1;P2;P0
45440;PMS5003;31189;38.790;-77.084;2023-08-06T00:01:40;31;29;
45440;PMS5003;31189;38.790;-77.084;2023-08-06T00:04:00;27;24;
45440;PMS5003;31189;38.790;-77.084;2023-08-06T00:06:26;36;26;
45440;PMS5003;31189;38.790;-77.084;2023-08-06T00:08:51;28;25;
45440;PMS5003;31189;38.790;-77.084;2023-08-06T00:11:16;30;28;
45440;PMS5003;31189;38.790;-77.084;2023-08-06T00:13:42;28;26;
45440;PMS5003;31189;38.790;-77.084;2023-08-06T00:16:09;44;32;
45440;PMS5003;31189;38.790;-77.084;2023-08-06T00:18:32;28;24;
45440;PMS5003;31189;38.790;-77.084;2023-08-06T00:20:57;31;23;
45440;PMS5003;31189;38.790;-77.084;2023-08-06T00:23:23;39;29;
45440;PMS5003;31189;38.790;-77.084;2023-08-06T00:25:48;29;27;
45440;PMS5003;31189;38.790;-77.084;2023-08-06T00:28:14;28;25;
45440;PMS5003;31189;38.790;-77.084;2023-08-06T00:30:39;30;29;
45440;PMS5003;31189;38.790;-77.084;2023-08-06T00:33:05;31;30;
45440;PMS5003;31189;38.790;-77.084;2023-08-06T00:35:31;37;25;
45440;PMS5003;31189;38.790;-77.084;2023-08-06T00:37:56;27;24;
45440;PMS5003;31189;38.790;-77.084;2023-08-06T00:40:21;35;26;
45440;PMS5003;31189;38.790;-77.084;2023-08-06T00:42:47;38;26;
45440;PMS5003;31189;38.790;-77.084;2023-08-06T00:45:12;28;26;
45440;PMS5003;31189;38.790;-77.084;2023-08-06T00:47:38;25;24;
45440;PMS5003;31189;38.790;-77.084;2023-08-06T00:50:04;30;26;
45440;PMS5003;31189;38.790;-77.084;2023-08-06T00:52:29;36;25;
45440;PMS5003;31189;38.790;-77.084;2023-08-06T00:54:55;36;24;
45440;PMS5003;31189;38.790;-77.084;2023-08-06T00:57:21;30;27;
45440;PMS5003;31189;38.790;-77.084;2023-08-06T00:59:46;37;28;
45440;PMS5003;31189;38.790;-77.084;2023-08-06T01:02:12;30;25;
45440;PMS5003;31189;38.790;-77.084;2023-08-06T01:04:37;25;25;
45440;PMS5003;31189;38.790;-77.084;2023-08-06T01:07:05;24;24;
45440;PMS5003;31189;38.790;-77.084;2023-08-06T01:09:31;26;25;
45440;PMS5003;31189;38.790;-77.084;2023-08-06T01:11:59;26;25;
45440;PMS5003;31189;38.790;-77.084;2023-08-06T01:14:21;28;25;
45440;PMS5003;31189;38.790;-77.084;2023-08-06T01:16:44;26;25;
45440;PMS5003;31189;38.790;-77.084;2023-08-06T01:21:35;25;25;
45440;PMS5003;31189;38.790;-77.084;2023-08-06T01:24:00;27;25;
45440;PMS5003;31189;38.790;-77.084;2023-08-06T01:26:28;39;28;
45440;PMS5003;31189;38.790;-77.084;2023-08-06T01:28:54;34;28;
45440;PMS5003;31189;38.790;-77.084;2023-08-06T01:31:20;34;23;
45440;PMS5003;31189;38.790;-77.084;2023-08-06T01:33:43;34;29;
45440;PMS5003;31189;38.790;-77.084;2023-08-06T01:36:08;30;28;
45440;PMS5003;31189;38.790;-77.084;2023-08-06T01:38:33;32;29;
45440;PMS5003;31189;38.790;-77.084;2023-08-06T01:40:59;48;35;
45440;PMS5003;31189;38.790;-77.084;2023-08-06T01:43:24;36;35;
45440;PMS5003;31189;38.790;-77.084;2023-08-06T01:45:50;39;34;
45440;PMS5003;31189;38.790;-77.084;2023-08-06T01:48:15;43;35;
45440;PMS5003;31189;38.790;-77.084;2023-08-06T01:50:41;38;36;
45440;PMS5003;31189;38.790;-77.084;2023-08-06T01:53:07;41;34;
45440;PMS5003;31189;38.790;-77.084;2023-08-06T01:55:32;44;31;
45440;PMS5003;31189;38.790;-77.084;2023-08-06T01:57:57;34;32;
45440;PMS5003;31189;38.790;-77.084;2023-08-06T02:00:23;43;35;
45440;PMS5003;31189;38.790;-77.084;2023-08-06T02:02:49;47;32;
45440;PMS5003;31189;38.790;-77.084;2023-08-06T02:05:14;49;36;
45440;PMS5003;31189;38.790;-77.084;2023-08-06T02:07:39;40;32;
45440;PMS5003;31189;38.790;-77.084;2023-08-06T02:10:05;42;32;
45440;PMS5003;31189;38.790;-77.084;2023-08-06T02:12:30;46;34;
45440;PMS5003;31189;38.790;-77.084;2023-08-06T02:14:56;45;33;
45440;PMS5003;31189;38.790;-77.084;2023-08-06T02:17:21;33;29;
45440;PMS5003;31189;38.790;-77.084;2023-08-06T02:19:47;37;32;
45440;PMS5003;31189;38.790;-77.084;2023-08-06T02:22:12;34;30;
45440;PMS5003;31189;38.790;-77.084;2023-08-06T02:24:38;45;34;
45440;PMS5003;31189;38.790;-77.084;2023-08-06T02:27:03;43;35;
45440;PMS5003;31189;38.790;-77.084;2023-08-06T02:29:28;30;30;
45440;PMS5003;31189;38.790;-77.084;2023-08-06T02:31:53;42;36;
45440;PMS5003;31189;38.790;-77.084;2023-08-06T02:34:19;46;34;
45440;PMS5003;31189;38.790;-77.084;2023-08-06T02:36:45;30;28;
45440;PMS5003;31189;38.790;-77.084;2023-08-06T02:39:09;36;31;
45440;PMS5003;31189;38.790;-77.084;2023-08-06T02:41:34;40;32;
45440;PMS5003;31189;38.790;-77.084;2023-08-06T02:44:00;36;30;
45440;PMS5003;31189;38.790;-77.084;2023-08-06T02:46:25;43;31;
45440;PMS5003;31189;38.790;-77.084;2023-08-06T02:48:51;37;29;
45440;PMS5003;31189;38.790;-77.084;2023-08-06T02:51:16;40;29;
45440;PMS5003;31189;38.790;-77.084;2023-08-06T02:53:42;32;31;
45440;PMS5003;31189;38.790;-77.084;2023-08-06T02:56:07;35;28;
45440;PMS5003;31189;38.790;-77.084;2023-08-06T02:58:33;26;26;
45440;PMS5003;31189;38.790;-77.084;2023-08-06T03:00:59;41;29;
45440;PMS5003;31189;38.790;-77.084;2023-08-06T03:03:24;42;29;
45440;PMS5003;31189;38.790;-77.084;2023-08-06T03:05:52;30;28;
45440;PMS5003;31189;38.790;-77.084;2023-08-06T03:08:15;48;32;
45440;PMS5003;31189;38.790;-77.084;2023-08-06T03:10:40;41;34;
45440;PMS5003;31189;38.790;-77.084;2023-08-06T03:13:06;33;29;
45440;PMS5003;31189;38.790;-77.084;2023-08-06T03:15:31;38;29;
45440;PMS5003;31189;38.790;-77.084;2023-08-06T03:17:56;36;30;
45440;PMS5003;31189;38.790;-77.084;2023-08-06T03:20:22;32;30;
45440;PMS5003;31189;38.790;-77.084;2023-08-06T03:22:47;34;31;
45440;PMS5003;31189;38.790;-77.084;2023-08-06T03:25:13;30;27;
45440;PMS5003;31189;38.790;-77.084;2023-08-06T03:27:39;32;27;
45440;PMS5003;31189;38.790;-77.084;2023-08-06T03:30:04;38;32;
45440;PMS5003;31189;38.790;-77.084;2023-08-06T03:32:29;32;28;
45440;PMS5003;31189;38.790;-77.084;2023-08-06T03:34:55;33;27;
45440;PMS5003;31189;38.790;-77.084;2023-08-06T03:37:20;41;29;
45440;PMS5003;31189;38.790;-77.084;2023-08-06T03:39:45;35;30;
45440;PMS5003;31189;38.790;-77.084;2023-08-06T03:42:11;30;28;
45440;PMS5003;31189;38.790;-77.084;2023-08-06T03:44:36;43;27;
45440;PMS5003;31189;38.790;-77.084;2023-08-06T03:47:01;28;27;
45440;PMS5003;31189;38.790;-77.084;2023-08-06T03:49:26;35;26;
45440;PMS5003;31189;38.790;-77.084;2023-08-06T03:51:52;45;31;
45440;PMS5003;31189;38.790;-77.084;2023-08-06T03:54:17;34;33;
45440;PMS5003;31189;38.790;-77.084;2023-08-06T03:56:42;30;27;
45440;PMS5003;31189;38.790;-77.084;2023-08-06T03:59:08;32;26;
45440;PMS5003;31189;38.790;-77.084;2023-08-06T04:01:33;34;32;
45440;PMS5003;31189;38.790;-77.084;2023-08-06T04:03:58;29;29;
45440;PMS5003;31189;38.790;-77.084;2023-08-06T04:06:23;37;29;
45440;PMS5003;31189;38.790;-77.084;2023-08-06T04:08:49;38;28;
45440;PMS5003;31189;38.790;-77.084;2023-08-06T04:11:14;29;28;
45440;PMS5003;31189;38.790;-77.084;2023-08-06T04:13:42;29;28;
45440;PMS5003;31189;38.790;-77.084;2023-08-06T04:16:05;37;30;
45440;PMS5003;31189;38.790;-77.084;2023-08-06T04:18:30;33;27;
45440;PMS5003;31189;38.790;-77.084;2023-08-06T04:20:56;30;29;
45440;PMS5003;31189;38.790;-77.084;2023-08-06T04:23:22;34;30;
45440;PMS5003;31189;38.790;-77.084;2023-08-06T04:25:47;42;29;
45440;PMS5003;31189;38.790;-77.084;2023-08-06T04:28:13;34;31;
45440;PMS5003;31189;38.790;-77.084;2023-08-06T04:30:38;42;30;
45440;PMS5003;31189;38.790;-77.084;2023-08-06T04:33:04;28;27;
45440;PMS5003;31189;38.790;-77.084;2023-08-06T04:35:29;31;25;
45440;PMS5003;31189;38.790;-77.084;2023-08-06T04:37:54;26;25;
45440;PMS5003;31189;38.790;-77.084;2023-08-06T04:40:19;31;30;
45440;PMS5003;31189;38.790;-77.084;2023-08-06T04:42:44;31;28;
45440;PMS5003;31189;38.790;-77.084;2023-08-06T04:45:10;27;27;
45440;PMS5003;31189;38.790;-77.084;2023-08-06T04:47:36;35;31;
45440;PMS5003;31189;38.790;-77.084;2023-08-06T04:50:01;29;26;
45440;PMS5003;31189;38.790;-77.084;2023-08-06T04:52:26;34;29;
45440;PMS5003;31189;38.790;-77.084;2023-08-06T04:54:52;42;29;
45440;PMS5003;31189;38.790;-77.084;2023-08-06T04:57:17;29;29;
45440;PMS5003;31189;38.790;-77.084;2023-08-06T04:59:43;32;27;
45440;PMS5003;31189;38.790;-77.084;2023-08-06T05:02:09;30;28;
45440;PMS5003;31189;38.790;-77.084;2023-08-06T05:04:35;40;29;
45440;PMS5003;31189;38.790;-77.084;2023-08-06T05:07:00;44;32;
45440;PMS5003;31189;38.790;-77.084;2023-08-06T05:09:27;29;28;
45440;PMS5003;31189;38.790;-77.084;2023-08-06T05:11:51;27;26;
45440;PMS5003;31189;38.790;-77.084;2023-08-06T05:14:16;37;26;
45440;PMS5003;31189;38.790;-77.084;2023-08-06T05:16:42;34;30;
45440;PMS5003;31189;38.790;-77.084;2023-08-06T05:19:07;30;27;
45440;PMS5003;31189;38.790;-77.084;2023-08-06T05:21:32;29;29;
45440;PMS5003;31189;38.790;-77.084;2023-08-06T05:23:57;35;28;
45440;PMS5003;31189;38.790;-77.084;2023-08-06T05:26:23;32;30;
45440;PMS5003;31189;38.790;-77.084;2023-08-06T05:28:48;33;29;
45440;PMS5003;31189;38.790;-77.084;2023-08-06T05:31:13;30;30;
45440;PMS5003;31189;38.790;-77.084;2023-08-06T05:33:38;28;26;
45440;PMS5003;31189;38.790;-77.084;2023-08-06T05:36:04;29;29;
45440;PMS5003;31189;38.790;-77.084;2023-08-06T05:38:29;28;26;
45440;PMS5003;31189;38.790;-77.084;2023-08-06T05:40:54;34;28;
45440;PMS5003;31189;38.790;-77.084;2023-08-06T05:43:19;33;28;
45440;PMS5003;31189;38.790;-77.084;2023-08-06T05:45:44;31;29;
45440;PMS5003;31189;38.790;-77.084;2023-08-06T05:48:10;36;28;
45440;PMS5003;31189;38.790;-77.084;2023-08-06T05:50:35;33;27;
45440;PMS5003;31189;38.790;-77.084;2023-08-06T05:53:01;32;28;
45440;PMS5003;31189;38.790;-77.084;2023-08-06T05:55:26;29;26;
45440;PMS5003;31189;38.790;-77.084;2023-08-06T05:57:51;30;24;
45440;PMS5003;31189;38.790;-77.084;2023-08-06T06:00:17;30;28;
45440;PMS5003;31189;38.790;-77.084;2023-08-06T06:02:42;32;28;
45440;PMS5003;31189;38.790;-77.084;2023-08-06T06:05:08;31;28;
45440;PMS5003;31189;38.790;-77.084;2023-08-06T06:07:33;36;28;
45440;PMS5003;31189;38.790;-77.084;2023-08-06T06:09:59;33;26;
45440;PMS5003;31189;38.790;-77.084;2023-08-06T06:12:24;26;24;
45440;PMS5003;31189;38.790;-77.084;2023-08-06T06:14:50;25;25;
45440;PMS5003;31189;38.790;-77.084;2023-08-06T06:17:15;27;24;
45440;PMS5003;31189;38.790;-77.084;2023-08-06T06:19:40;41;27;
45440;PMS5003;31189;38.790;-77.084;2023-08-06T06:22:06;29;27;
45440;PMS5003;31189;38.790;-77.084;2023-08-06T06:24:31;33;30;
45440;PMS5003;31189;38.790;-77.084;2023-08-06T06:26:57;34;28;
45440;PMS5003;31189;38.790;-77.084;2023-08-06T06:29:22;33;29;
45440;PMS5003;31189;38.790;-77.084;2023-08-06T06:31:47;26;25;
45440;PMS5003;31189;38.790;-77.084;2023-08-06T06:34:12;27;26;
45440;PMS5003;31189;38.790;-77.084;2023-08-06T06:36:38;32;24;
45440;PMS5003;31189;38.790;-77.084;2023-08-06T06:39:03;32;28;
45440;PMS5003;31189;38.790;-77.084;2023-08-06T06:41:29;24;24;
45440;PMS5003;31189;38.790;-77.084;2023-08-06T06:43:54;25;25;
45440;PMS5003;31189;38.790;-77.084;2023-08-06T06:46:19;42;28;
45440;PMS5003;31189;38.790;-77.084;2023-08-06T06:48:45;24;24;
45440;PMS5003;31189;38.790;-77.084;2023-08-06T06:51:10;26;23;
45440;PMS5003;31189;38.790;-77.084;2023-08-06T06:53:35;26;25;
45440;PMS5003;31189;38.790;-77.084;2023-08-06T06:56:01;30;26;
45440;PMS5003;31189;38.790;-77.084;2023-08-06T06:58:26;41;29;
45440;PMS5003;31189;38.790;-77.084;2023-08-06T07:00:52;31;27;
45440;PMS5003;31189;38.790;-77.084;2023-08-06T07:03:17;37;25;
45440;PMS5003;31189;38.790;-77.084;2023-08-06T07:05:42;33;27;
45440;PMS5003;31189;38.790;-77.084;2023-08-06T07:08:07;27;27;
45440;PMS5003;31189;38.790;-77.084;2023-08-06T07:10:33;24;23;
45440;PMS5003;31189;38.790;-77.084;2023-08-06T07:12:58;34;28;
45440;PMS5003;31189;38.790;-77.084;2023-08-06T07:15:23;27;25;
45440;PMS5003;31189;38.790;-77.084;2023-08-06T07:17:49;35;32;
45440;PMS5003;31189;38.790;-77.084;2023-08-06T07:20:14;44;32;
45440;PMS5003;31189;38.790;-77.084;2023-08-06T07:22:40;30;29;
45440;PMS5003;31189;38.790;-77.084;2023-08-06T07:25:05;42;26;
45440;PMS5003;31189;38.790;-77.084;2023-08-06T07:27:32;27;27;
45440;PMS5003;31189;38.790;-77.084;2023-08-06T07:29:56;30;26;
45440;PMS5003;31189;38.790;-77.084;2023-08-06T07:32:21;28;25;
45440;PMS5003;31189;38.790;-77.084;2023-08-06T07:34:47;31;25;
45440;PMS5003;31189;38.790;-77.084;2023-08-06T07:37:12;29;27;
45440;PMS5003;31189;38.790;-77.084;2023-08-06T07:39:38;34;29;
45440;PMS5003;31189;38.790;-77.084;2023-08-06T07:42:04;46;32;
45440;PMS5003;31189;38.790;-77.084;2023-08-06T07:44:29;39;25;
45440;PMS5003;31189;38.790;-77.084;2023-08-06T07:46:55;31;29;
45440;PMS5003;31189;38.790;-77.084;2023-08-06T07:49:21;32;27;
45440;PMS5003;31189;38.790;-77.084;2023-08-06T07:51:45;29;28;
45440;PMS5003;31189;38.790;-77.084;2023-08-06T07:54:10;29;25;
45440;PMS5003;31189;38.790;-77.084;2023-08-06T07:56:35;33;28;
45440;PMS5003;31189;38.790;-77.084;2023-08-06T07:59:01;40;28;
45440;PMS5003;31189;38.790;-77.084;2023-08-06T08:01:27;38;27;
45440;PMS5003;31189;38.790;-77.084;2023-08-06T08:03:52;39;27;
45440;PMS5003;31189;38.790;-77.084;2023-08-06T08:06:17;35;26;
45440;PMS5003;31189;38.790;-77.084;2023-08-06T08:08:43;27;26;
45440;PMS5003;31189;38.790;-77.084;2023-08-06T08:11:08;33;28;
45440;PMS5003;31189;38.790;-77.084;2023-08-06T08:13:33;30;30;
45440;PMS5003;31189;38.790;-77.084;2023-08-06T08:15:59;37;25;
45440;PMS5003;31189;38.790;-77.084;2023-08-06T08:18:24;33;27;
45440;PMS5003;31189;38.790;-77.084;2023-08-06T08:20:50;30;29;
45440;PMS5003;31189;38.790;-77.084;2023-08-06T08:23:16;29;24;
45440;PMS5003;31189;38.790;-77.084;2023-08-06T08:25:41;26;25;
45440;PMS5003;31189;38.790;-77.084;2023-08-06T08:28:07;30;26;
45440;PMS5003;31189;38.790;-77.084;2023-08-06T08:30:32;34;29;
45440;PMS5003;31189;38.790;-77.084;2023-08-06T08:32:57;30;29;
45440;PMS5003;31189;38.790;-77.084;2023-08-06T08:35:23;41;27;
45440;PMS5003;31189;38.790;-77.084;2023-08-06T08:37:48;36;31;
45440;PMS5003;31189;38.790;-77.084;2023-08-06T08:40:14;30;25;
45440;PMS5003;31189;38.790;-77.084;2023-08-06T08:42:39;27;26;
45440;PMS5003;31189;38.790;-77.084;2023-08-06T08:45:04;30;25;
45440;PMS5003;31189;38.790;-77.084;2023-08-06T08:47:29;25;25;
45440;PMS5003;31189;38.790;-77.084;2023-08-06T08:49:54;31;28;
45440;PMS5003;31189;38.790;-77.084;2023-08-06T08:52:19;37;28;
45440;PMS5003;31189;38.790;-77.084;2023-08-06T08:54:45;27;25;
45440;PMS5003;31189;38.790;-77.084;2023-08-06T08:57:10;31;26;
45440;PMS5003;31189;38.790;-77.084;2023-08-06T08:59:35;29;26;
45440;PMS5003;31189;38.790;-77.084;2023-08-06T09:02:01;34;25;
45440;PMS5003;31189;38.790;-77.084;2023-08-06T09:04:26;34;27;
45440;PMS5003;31189;38.790;-77.084;2023-08-06T09:06:51;34;26;
45440;PMS5003;31189;38.790;-77.084;2023-08-06T09:09:19;34;25;
45440;PMS5003;31189;38.790;-77.084;2023-08-06T09:11:43;29;27;
45440;PMS5003;31189;38.790;-77.084;2023-08-06T09:14:07;29;27;
45440;PMS5003;31189;38.790;-77.084;2023-08-06T09:16:33;31;26;
45440;PMS5003;31189;38.790;-77.084;2023-08-06T09:19:00;32;27;
45440;PMS5003;31189;38.790;-77.084;2023-08-06T09:21:24;40;28;
45440;PMS5003;31189;38.790;-77.084;2023-08-06T09:23:50;30;25;
45440;PMS5003;31189;38.790;-77.084;2023-08-06T09:26:16;30;28;
45440;PMS5003;31189;38.790;-77.084;2023-08-06T09:28:41;31;29;
45440;PMS5003;31189;38.790;-77.084;2023-08-06T09:31:07;43;28;
45440;PMS5003;31189;38.790;-77.084;2023-08-06T09:33:32;32;27;
45440;PMS5003;31189;38.790;-77.084;2023-08-06T09:35:57;34;27;
45440;PMS5003;31189;38.790;-77.084;2023-08-06T09:38:23;32;26;
45440;PMS5003;31189;38.790;-77.084;2023-08-06T09:40:48;31;28;
45440;PMS5003;31189;38.790;-77.084;2023-08-06T09:43:14;35;28;
45440;PMS5003;31189;38.790;-77.084;2023-08-06T09:45:39;29;26;
45440;PMS5003;31189;38.790;-77.084;2023-08-06T09:48:05;27;27;
45440;PMS5003;31189;38.790;-77.084;2023-08-06T09:50:30;36;26;
45440;PMS5003;31189;38.790;-77.084;2023-08-06T09:52:55;29;25;
45440;PMS5003;31189;38.790;-77.084;2023-08-06T09:55:20;34;26;
45440;PMS5003;31189;38.790;-77.084;2023-08-06T09:57:45;31;25;
45440;PMS5003;31189;38.790;-77.084;2023-08-06T10:00:11;39;27;
45440;PMS5003;31189;38.790;-77.084;2023-08-06T10:02:37;37;25;
45440;PMS5003;31189;38.790;-77.084;2023-08-06T10:05:02;30;29;
45440;PMS5003;31189;38.790;-77.084;2023-08-06T10:07:27;33;28;
45440;PMS5003;31189;38.790;-77.084;2023-08-06T10:09:52;30;27;
45440;PMS5003;31189;38.790;-77.084;2023-08-06T10:12:18;27;24;
45440;PMS5003;31189;38.790;-77.084;2023-08-06T10:14:43;25;25;
45440;PMS5003;31189;38.790;-77.084;2023-08-06T10:17:08;30;27;
45440;PMS5003;31189;38.790;-77.084;2023-08-06T10:19:34;30;26;
45440;PMS5003;31189;38.790;-77.084;2023-08-06T10:24:25;29;25;
45440;PMS5003;31189;38.790;-77.084;2023-08-06T10:26:50;31;26;
45440;PMS5003;31189;38.790;-77.084;2023-08-06T10:34:06;26;24;
45440;PMS5003;31189;38.790;-77.084;2023-08-06T10:36:32;30;27;
45440;PMS5003;31189;38.790;-77.084;2023-08-06T10:38:57;36;28;
45440;PMS5003;31189;38.790;-77.084;2023-08-06T10:41:23;38;25;
45440;PMS5003;31189;38.790;-77.084;2023-08-06T10:43:48;34;25;
45440;PMS5003;31189;38.790;-77.084;2023-08-06T10:48:39;26;26;
45440;PMS5003;31189;38.790;-77.084;2023-08-06T10:51:06;31;22;
45440;PMS5003;31189;38.790;-77.084;2023-08-06T10:53:30;35;28;
45440;PMS5003;31189;38.790;-77.084;2023-08-06T10:55:55;28;25;
45440;PMS5003;31189;38.790;-77.084;2023-08-06T10:58:21;27;24;
45440;PMS5003;31189;38.790;-77.084;2023-08-06T11:00:46;37;27;
45440;PMS5003;31189;38.790;-77.084;2023-08-06T11:03:12;38;25;
45440;PMS5003;31189;38.790;-77.084;2023-08-06T11:05:37;32;29;
45440;PMS5003;31189;38.790;-77.084;2023-08-06T11:08:02;31;26;
45440;PMS5003;31189;38.790;-77.084;2023-08-06T11:10:28;26;24;
45440;PMS5003;31189;38.790;-77.084;2023-08-06T11:12:53;32;24;
45440;PMS5003;31189;38.790;-77.084;2023-08-06T11:15:20;34;26;
45440;PMS5003;31189;38.790;-77.084;2023-08-06T11:17:44;25;24;
45440;PMS5003;31189;38.790;-77.084;2023-08-06T11:20:10;28;26;
45440;PMS5003;31189;38.790;-77.084;2023-08-06T11:22:35;24;23;
45440;PMS5003;31189;38.790;-77.084;2023-08-06T11:25:00;29;28;
45440;PMS5003;31189;38.790;-77.084;2023-08-06T11:27:26;24;22;
45440;PMS5003;31189;38.790;-77.084;2023-08-06T11:29:50;30;24;
45440;PMS5003;31189;38.790;-77.084;2023-08-06T11:32:16;30;25;
45440;PMS5003;31189;38.790;-77.084;2023-08-06T11:34:42;26;25;
45440;PMS5003;31189;38.790;-77.084;2023-08-06T11:37:07;29;25;
45440;PMS5003;31189;38.790;-77.084;2023-08-06T11:39:32;28;25;
45440;PMS5003;31189;38.790;-77.084;2023-08-06T11:41:57;32;24;
45440;PMS5003;31189;38.790;-77.084;2023-08-06T11:44:23;29;29;
45440;PMS5003;31189;38.790;-77.084;2023-08-06T11:46:50;32;24;
45440;PMS5003;31189;38.790;-77.084;2023-08-06T11:49:19;27;24;
45440;PMS5003;31189;38.790;-77.084;2023-08-06T11:51:39;28;25;
45440;PMS5003;31189;38.790;-77.084;2023-08-06T11:54:04;36;26;
45440;PMS5003;31189;38.790;-77.084;2023-08-06T11:56:30;26;24;
45440;PMS5003;31189;38.790;-77.084;2023-08-06T11:58:55;27;26;
45440;PMS5003;31189;38.790;-77.084;2023-08-06T12:01:26;26;26;
45440;PMS5003;31189;38.790;-77.084;2023-08-06T12:03:47;33;28;
45440;PMS5003;31189;38.790;-77.084;2023-08-06T12:06:12;35;26;
45440;PMS5003;31189;38.790;-77.084;2023-08-06T12:08:38;30;27;
45440;PMS5003;31189;38.790;-77.084;2023-08-06T12:11:03;27;26;
45440;PMS5003;31189;38.790;-77.084;2023-08-06T12:13:28;41;28;
45440;PMS5003;31189;38.790;-77.084;2023-08-06T12:15:54;29;28;
45440;PMS5003;31189;38.790;-77.084;2023-08-06T12:18:19;43;27;
45440;PMS5003;31189;38.790;-77.084;2023-08-06T12:20:45;39;28;
45440;PMS5003;31189;38.790;-77.084;2023-08-06T12:23:11;31;28;
45440;PMS5003;31189;38.790;-77.084;2023-08-06T12:25:36;40;28;
45440;PMS5003;31189;38.790;-77.084;2023-08-06T12:28:01;33;28;
45440;PMS5003;31189;38.790;-77.084;2023-08-06T12:30:32;30;27;
45440;PMS5003;31189;38.790;-77.084;2023-08-06T12:35:22;28;25;
45440;PMS5003;31189;38.790;-77.084;2023-08-06T12:37:47;25;22;
45440;PMS5003;31189;38.790;-77.084;2023-08-06T12:42:34;30;28;
45440;PMS5003;31189;38.790;-77.084;2023-08-06T12:44:59;30;28;
45440;PMS5003;31189;38.790;-77.084;2023-08-06T12:47:29;31;26;
45440;PMS5003;31189;38.790;-77.084;2023-08-06T12:49:54;30;25;
45440;PMS5003;31189;38.790;-77.084;2023-08-06T12:52:15;44;30;
45440;PMS5003;31189;38.790;-77.084;2023-08-06T12:54:45;34;26;
45440;PMS5003;31189;38.790;-77.084;2023-08-06T12:57:05;24;24;
45440;PMS5003;31189;38.790;-77.084;2023-08-06T12:59:30;27;24;
45440;PMS5003;31189;38.790;-77.084;2023-08-06T13:01:55;34;25;
45440;PMS5003;31189;38.790;-77.084;2023-08-06T13:04:21;29;22;
45440;PMS5003;31189;38.790;-77.084;2023-08-06T13:06:47;24;23;
45440;PMS5003;31189;38.790;-77.084;2023-08-06T13:09:13;29;22;
45440;PMS5003;31189;38.790;-77.084;2023-08-06T13:11:38;26;26;
45440;PMS5003;31189;38.790;-77.084;2023-08-06T13:14:05;30;28;
45440;PMS5003;31189;38.790;-77.084;2023-08-06T13:16:28;27;26;
45440;PMS5003;31189;38.790;-77.084;2023-08-06T13:18:54;34;25;
45440;PMS5003;31189;38.790;-77.084;2023-08-06T13:21:19;28;24;
45440;PMS5003;31189;38.790;-77.084;2023-08-06T13:23:44;29;24;
45440;PMS5003;31189;38.790;-77.084;2023-08-06T13:26:15;23;21;
45440;PMS5003;31189;38.790;-77.084;2023-08-06T13:28:35;30;26;
45440;PMS5003;31189;38.790;-77.084;2023-08-06T13:31:01;24;24;
45440;PMS5003;31189;38.790;-77.084;2023-08-06T13:33:26;26;25;
45440;PMS5003;31189;38.790;-77.084;2023-08-06T13:35:58;30;22;
45440;PMS5003;31189;38.790;-77.084;2023-08-06T13:38:17;28;27;
45440;PMS5003;31189;38.790;-77.084;2023-08-06T13:40:43;29;24;
45440;PMS5003;31189;38.790;-77.084;2023-08-06T13:43:09;28;23;
45440;PMS5003;31189;38.790;-77.084;2023-08-06T13:45:34;29;25;
45440;PMS5003;31189;38.790;-77.084;2023-08-06T13:48:05;26;24;
45440;PMS5003;31189;38.790;-77.084;2023-08-06T13:50:25;26;22;
45440;PMS5003;31189;38.790;-77.084;2023-08-06T13:52:51;22;22;
45440;PMS5003;31189;38.790;-77.084;2023-08-06T13:55:16;34;22;
45440;PMS5003;31189;38.790;-77.084;2023-08-06T13:57:42;25;23;
45440;PMS5003;31189;38.790;-77.084;2023-08-06T14:00:07;22;22;
45440;PMS5003;31189;38.790;-77.084;2023-08-06T14:02:33;26;25;
45440;PMS5003;31189;38.790;-77.084;2023-08-06T14:04:58;31;24;
45440;PMS5003;31189;38.790;-77.084;2023-08-06T14:07:24;27;24;
45440;PMS5003;31189;38.790;-77.084;2023-08-06T14:09:49;26;23;
45440;PMS5003;31189;38.790;-77.084;2023-08-06T14:12:15;23;23;
45440;PMS5003;31189;38.790;-77.084;2023-08-06T14:14:40;22;22;
45440;PMS5003;31189;38.790;-77.084;2023-08-06T14:17:06;27;27;
45440;PMS5003;31189;38.790;-77.084;2023-08-06T14:19:31;35;23;
45440;PMS5003;31189;38.790;-77.084;2023-08-06T14:21:56;26;26;
45440;PMS5003;31189;38.790;-77.084;2023-08-06T14:24:21;29;26;
45440;PMS5003;31189;38.790;-77.084;2023-08-06T14:26:52;27;26;
45440;PMS5003;31189;38.790;-77.084;2023-08-06T14:29:12;23;21;
45440;PMS5003;31189;38.790;-77.084;2023-08-06T14:31:37;34;25;
45440;PMS5003;31189;38.790;-77.084;2023-08-06T14:34:02;24;23;
45440;PMS5003;31189;38.790;-77.084;2023-08-06T14:36:27;28;24;
45440;PMS5003;31189;38.790;-77.084;2023-08-06T14:38:53;27;24;
45440;PMS5003;31189;38.790;-77.084;2023-08-06T14:41:19;23;23;
45440;PMS5003;31189;38.790;-77.084;2023-08-06T14:43:44;24;23;
45440;PMS5003;31189;38.790;-77.084;2023-08-06T14:46:09;36;24;
45440;PMS5003;31189;38.790;-77.084;2023-08-06T14:48:35;28;23;
45440;PMS5003;31189;38.790;-77.084;2023-08-06T14:51:00;31;25;
45440;PMS5003;31189;38.790;-77.084;2023-08-06T14:53:26;21;21;
45440;PMS5003;31189;38.790;-77.084;2023-08-06T14:55:52;22;21;
45440;PMS5003;31189;38.790;-77.084;2023-08-06T14:58:17;30;22;
45440;PMS5003;31189;38.790;-77.084;2023-08-06T15:00:44;24;24;
45440;PMS5003;31189;38.790;-77.084;2023-08-06T15:03:09;33;27;
45440;PMS5003;31189;38.790;-77.084;2023-08-06T15:05:34;37;24;
45440;PMS5003;31189;38.790;-77.084;2023-08-06T15:07:59;23;23;
45440;PMS5003;31189;38.790;-77.084;2023-08-06T15:10:25;22;22;
45440;PMS5003;31189;38.790;-77.084;2023-08-06T15:12:50;28;24;
45440;PMS5003;31189;38.790;-77.084;2023-08-06T15:15:16;29;26;
45440;PMS5003;31189;38.790;-77.084;2023-08-06T15:17:41;31;21;
45440;PMS5003;31189;38.790;-77.084;2023-08-06T15:20:07;27;24;
45440;PMS5003;31189;38.790;-77.084;2023-08-06T15:24:57;24;23;
45440;PMS5003;31189;38.790;-77.084;2023-08-06T15:27:22;21;21;
45440;PMS5003;31189;38.790;-77.084;2023-08-06T15:29:53;26;24;
45440;PMS5003;31189;38.790;-77.084;2023-08-06T15:32:13;34;26;
45440;PMS5003;31189;38.790;-77.084;2023-08-06T15:34:44;29;25;
45440;PMS5003;31189;38.790;-77.084;2023-08-06T15:37:04;34;23;
45440;PMS5003;31189;38.790;-77.084;2023-08-06T15:39:30;24;24;
45440;PMS5003;31189;38.790;-77.084;2023-08-06T15:41:56;24;22;
45440;PMS5003;31189;38.790;-77.084;2023-08-06T15:44:20;31;25;
45440;PMS5003;31189;38.790;-77.084;2023-08-06T15:46:46;25;23;
45440;PMS5003;31189;38.790;-77.084;2023-08-06T15:49:11;22;22;
45440;PMS5003;31189;38.790;-77.084;2023-08-06T15:51:42;36;26;
45440;PMS5003;31189;38.790;-77.084;2023-08-06T15:54:03;27;23;